AirNav   Everest Fuels
 
 1124 users online  

36PN US Army Reserve Center Heliport
Edgemont, Pennsylvania, USA

GOING TO EDGEMONT?


FAA INFORMATION EFFECTIVE 30 DECEMBER 2021

Location

FAA Identifier: 36PN
Lat/Long: 39-58-00.3960N 075-27-08.7150W
39-58.006600N 075-27.145250W
39.9667767,-75.4524208
(estimated)
Elevation: 480 ft. / 146 m (estimated)
Variation: 11W (1985)
From city: 2 miles E of EDGEMONT, PA
Time zone: UTC -5 (UTC -4 during Daylight Saving Time)
Zip code: 19073

Heliport Operations

Heliport use: Private use. Permission required prior to landing
Activation date: 08/1980
Control tower: no
ARTCC: NEW YORK CENTER
FSS: WILLIAMSPORT FLIGHT SERVICE STATION
Attendance: UNATNDD
Segmented circle: no

Heliport Communications

WX AWOS-3T at OQN (6 nm W): 121.4 ((610) 692-6190)
WX ASOS at PHL (11 nm SE): PHONE 215-492-9617
WX AWOS-3 at LOM (13 nm NE): 118.925 (215-646-1068)
WX ASOS at PTW (17 nm N): 119.425 (610-495-0823)
WX ASOS at ILG (19 nm S): 123.95 (302-328-1536)
WX AWOS-3 at MQS (19 nm W): 126.25 (610-384-6132)

Nearby radio navigation aids

VOR radial/distance  VOR name  Freq  Var
MXEr083/10.5MODENA VORTAC113.2009W
PTWr171/16.1POTTSTOWN VORTAC116.5009W
DQOr032/18.7DUPONT VORTAC114.0010W
OODr351/21.0WOODSTOWN VORTAC112.8010W
ARDr245/30.3YARDLEY VOR/DME108.2010W
VCNr329/34.1CEDAR LAKE VOR/DME115.2010W
ETXr173/38.4EAST TEXAS VOR/DME110.2009W
GXUr278/39.4MC GUIRE VORTAC110.6012W
LRPr112/39.6LANCASTER VOR/DME117.3009W

 
NDB name  Hdg/Dist  Freq  Var  ID
AMBLER231/12.327512WING .. -. --.
RAINBOW347/36.036311WRNB .-. -. -...

Heliport Services

Runway Information

Helipad H1

Dimensions: 150 x 75 ft. / 46 x 23 m
Surface: turf, in fair condition
Latitude: 39-58.006600N
Longitude: 075-27.145250W
Elevation: 480.0 ft.
Traffic pattern: leftleft
Markings: none, in fair condition

Heliport Ownership and Management from official FAA records

Ownership: Privately-owned
Owner: EDGEMONT USA RESERVE CTR
DELCHESTER RD & RT 3
EDGEMONT, PA 19028-5099
Phone 215-558-1111
Manager: LOUIE E SUMMERS
DELCHESTER RD & RT 3
EDGEMONT, PA 19028-5099
Phone 215-558-1110

Additional Remarks

FOR CD CTC PHILADELPHIA APCH AT 800-354-9884.

Instrument Procedures

There are no published instrument procedures at 36PN.

Some nearby airports with instrument procedures:

KOQN - Brandywine Regional Airport (6 nm W)
KPHL - Philadelphia International Airport (11 nm SE)
KLOM - Wings Field Airport (13 nm NE)
7N7 - Spitfire Aerodrome (14 nm S)
N57 - New Garden Airport (17 nm SW)
KPTW - Heritage Field Airport (17 nm N)
KILG - New Castle Airport (19 nm S)
KMQS - Chester County G O Carlson Airport (19 nm W)
 
Loc | Ops | Rwys | IFR | FBO | Links
Com | Nav | Svcs | Stats | Notes
Area around 36PN (US Army Reserve Center Heliport)
 
Road maps at: MapQuest Bing Google
 
Aerial photo
No photo
 
Sectional chart

 
Airport distance calculator
Flying to US Army Reserve Center Heliport? Find the distance to fly.

From to 36PN

Sunrise and sunset
Times for 23-Jan-2022
 Local
(UTC-5)
 Zulu
(UTC)
Morning civil twilight06:4911:49
Sunrise07:1912:19
Sunset17:0922:09
Evening civil twilight17:3822:38

Current date and time
Zulu (UTC)  23-Jan-2022 16:46:10
Local (UTC-5)  23-Jan-2022 11:46:10
 
METAR
KOQN 
6nm W 
231635Z AUTO 25005KT 10SM CLR 01/M09 A2991 RMK AO2
KPHL 
12nm SE 
231554Z 23005KT 10SM FEW110 SCT250 01/M09 A2996 RMK AO2 SLP144 T00111094
KLOM 
13nm NE 
231635Z AUTO 24009KT 10SM CLR 01/M09 A2992 RMK AO2 T00131093
KPTW 
17nm N 
231554Z AUTO 21006KT 10SM CLR M01/M10 A2994 RMK AO2 SLP140 T10061100
KMQS 
19nm W 
231635Z AUTO VRB06G11KT 10SM CLR 01/M09 A2991 RMK AO2
KILG 
19nm S 
231551Z 29007KT 10SM FEW120 02/M09 A2997 RMK AO2 SLP148 T00221094 $
TAF
KPHL 
12nm SE 
231134Z 2312/2418 24005KT P6SM SCT200 FM231800 25008KT P6SM BKN120 FM232300 VRB03KT P6SM -SN OVC060 FM240300 VRB02KT P6SM BKN060 FM240900 33005KT P6SM SCT150
KILG 
19nm S 
231134Z 2312/2412 24005KT P6SM SCT200 FM231600 25008KT P6SM BKN150 FM232300 VRB03KT P6SM OVC060 FM240800 33006KT P6SM SCT090
NOTAMs
Click for the latest NOTAMs
NOTAMs are issued by the DoD/FAA and will open in a separate window not controlled by AirNav.

 

 
 

Would you like to see your business listed on this page?

 If your business provides an interesting product or service to pilots, flight crews, aircraft, or users of the US Army Reserve Center Heliport, you should consider listing it here.  To start the listing process, click on the button below
 
Add a business
 

Other Pages about US Army Reserve Center Heliport

Update a link
 
Copyright © AirNav, LLC. All rights reserved. Privacy Policy  Contact